Time;durP1;ratioP1;P1;durP2;ratioP2;P2;SDS_P1;SDS_P2;PMS_P1;PMS_P2;Temp;Humidity;BMP_temperature;BMP_pressure;BME280_temperature;BME280_humidity;BME280_pressure;Samples;Min_cycle;Max_cycle;Signal;HPM_P1;HPM_P2
2021/06/01 00:01:46;;;;;;;10.48;7.05;;;;;;;11.51;60.80;100728.01;1711827;81;25666;-79
2021/06/01 00:04:13;;;;;;;13.62;7.10;;;;;;;11.48;61.00;100738.77;1715572;81;25536;-79
2021/06/01 00:06:41;;;;;;;9.20;6.20;;;;;;;11.46;61.05;100735.52;1712658;81;25575;-79
2021/06/01 00:09:17;;;;;;;12.20;6.83;;;;;;;11.48;61.08;100726.19;1712647;81;25557;-79
2021/06/01 00:11:44;;;;;;;10.28;7.35;;;;;;;11.45;61.14;100730.44;1716253;81;25554;-79
2021/06/01 00:14:11;;;;;;;10.90;6.55;;;;;;;11.39;61.20;100734.52;1712473;81;25610;-79
2021/06/01 00:16:38;;;;;;;9.95;6.78;;;;;;;11.34;61.35;100728.45;1741049;80;25174;-79
2021/06/01 00:19:07;;;;;;;10.58;7.40;;;;;;;11.28;61.42;100727.79;1737867;80;25373;-79
2021/06/01 00:21:35;;;;;;;10.18;6.37;;;;;;;11.23;61.54;100730.06;1738590;80;25768;-79
2021/06/01 00:24:03;;;;;;;13.43;6.95;;;;;;;11.21;61.42;100725.50;1739274;80;25129;-79
2021/06/01 00:26:30;;;;;;;10.05;6.97;;;;;;;11.25;61.71;100732.53;1735876;80;25522;-79
2021/06/01 00:28:56;;;;;;;11.70;6.67;;;;;;;11.27;61.66;100727.47;1737760;80;26545;-79
2021/06/01 00:31:22;;;;;;;10.93;6.90;;;;;;;11.30;61.81;100724.53;1738136;80;32621;-79
2021/06/01 00:33:48;;;;;;;15.70;7.08;;;;;;;11.25;61.72;100729.42;1740587;80;34689;-79
2021/06/01 00:36:14;;;;;;;9.33;6.47;;;;;;;11.25;61.79;100726.80;1736171;80;32402;-75
2021/06/01 00:38:40;;;;;;;10.35;6.75;;;;;;;11.26;61.86;100721.08;1735800;80;25605;-76
2021/06/01 00:41:06;;;;;;;12.47;7.73;;;;;;;11.25;61.87;100727.30;1740460;80;32058;-80
2021/06/01 00:43:33;;;;;;;12.07;7.40;;;;;;;11.20;61.97;100730.88;1738468;80;25536;-79
2021/06/01 00:46:00;;;;;;;14.78;7.40;;;;;;;11.17;62.13;100726.78;1739717;80;25160;-79
2021/06/01 00:48:26;;;;;;;11.25;6.87;;;;;;;11.15;62.19;100728.73;1741118;80;25550;-76
2021/06/01 00:50:52;;;;;;;17.70;8.08;;;;;;;11.19;62.18;100725.33;1741428;80;25665;-76
2021/06/01 00:53:18;;;;;;;12.58;7.67;;;;;;;11.19;62.16;100720.91;1740500;80;25189;-76
2021/06/01 00:55:44;;;;;;;11.25;7.58;;;;;;;11.19;62.04;100726.14;1734230;80;25173;-76
2021/06/01 00:58:11;;;;;;;14.40;7.47;;;;;;;11.21;62.26;100720.27;1740600;80;35090;-76
2021/06/01 01:03:04;;;;;;;14.30;8.33;;;;;;;11.06;62.30;100725.28;1741342;80;25765;-76
2021/06/01 01:05:36;;;;;;;10.70;8.15;;;;;;;11.03;62.29;100714.33;1736713;80;25424;-75
2021/06/01 01:08:33;;;;;;;12.60;8.20;;;;;;;10.98;62.30;100715.30;1743077;80;25563;-76
2021/06/01 01:10:55;;;;;;;13.50;7.55;;;;;;;10.88;62.55;100714.95;1736876;80;25628;-76
2021/06/01 01:13:21;;;;;;;11.80;7.45;;;;;;;10.81;62.73;100713.11;1736765;80;25528;-79
2021/06/01 01:15:50;;;;;;;12.00;7.60;;;;;;;10.75;62.76;100718.48;1743001;80;25726;-79
2021/06/01 01:18:20;;;;;;;12.40;8.03;;;;;;;10.73;62.93;100711.77;1735971;80;25545;-79
2021/06/01 01:21:16;;;;;;;;;;;;;;;10.72;62.98;100714.04;1744407;80;25142;-79
2021/06/01 01:24:00;;;;;;;15.05;8.13;;;;;;;10.70;63.07;100713.40;1713026;81;25659;-79
2021/06/01 01:26:37;;;;;;;12.90;8.35;;;;;;;10.68;63.18;100720.08;1661895;84;25444;-78
2021/06/01 01:29:14;;;;;;;15.35;8.15;;;;;;;10.70;63.30;100710.78;1678794;83;27075;-75
2021/06/01 01:31:47;;;;;;;13.43;7.83;;;;;;;10.73;63.23;100711.77;1681314;83;25189;-76
2021/06/01 01:34:14;;;;;;;12.90;8.35;;;;;;;10.79;63.17;100714.56;1680844;83;25679;-75
2021/06/01 01:36:46;;;;;;;12.07;7.72;;;;;;;10.86;63.23;100708.23;1646309;83;25558;-75
2021/06/01 01:39:14;;;;;;;14.85;7.95;;;;;;;10.93;63.15;100715.75;1682256;83;25532;-76
2021/06/01 01:41:42;;;;;;;11.45;7.92;;;;;;;10.80;62.90;100712.30;1680537;83;25547;-76
2021/06/01 01:44:11;;;;;;;11.28;7.80;;;;;;;10.58;62.96;100714.14;1650662;83;25435;-76
2021/06/01 01:49:19;;;;;;;11.30;8.00;;;;;;;10.45;63.65;100704.14;1683489;83;25968;-79
2021/06/01 01:51:52;;;;;;;13.05;8.18;;;;;;;10.40;63.86;100704.59;1682808;83;25625;-76
2021/06/01 01:54:22;;;;;;;12.65;8.28;;;;;;;10.40;63.99;100703.28;1682960;83;25676;-76
2021/06/01 01:56:54;;;;;;;13.38;8.25;;;;;;;10.45;64.32;100700.22;1684819;83;25266;-76
2021/06/01 01:59:24;;;;;;;15.30;8.73;;;;;;;10.47;64.35;100703.47;1682357;83;25528;-77
2021/06/01 02:01:53;;;;;;;13.83;8.93;;;;;;;10.49;64.47;100705.94;1682181;83;25291;-79
2021/06/01 02:04:24;;;;;;;14.07;8.63;;;;;;;10.46;64.71;100703.64;1730211;80;25380;-76
2021/06/01 02:06:52;;;;;;;17.50;9.15;;;;;;;10.43;64.84;100701.66;1744652;80;25555;-79
2021/06/01 02:09:18;;;;;;;13.53;8.53;;;;;;;10.28;64.92;100705.81;1746024;80;25410;-79
2021/06/01 02:11:44;;;;;;;12.03;8.30;;;;;;;10.12;65.21;100700.46;1745611;80;25686;-79
2021/06/01 02:14:10;;;;;;;16.27;9.30;;;;;;;10.13;65.59;100702.93;1741623;80;34633;-79
2021/06/01 02:16:40;;;;;;;12.63;8.05;;;;;;;10.18;65.75;100705.09;1747672;80;25578;-79
2021/06/01 02:19:13;;;;;;;14.85;7.80;;;;;;;10.25;65.90;100703.48;1744276;80;26245;-79
2021/06/01 02:24:26;;;;;;;;;;;;;;;10.44;66.19;100699.38;1745393;80;25623;-75
2021/06/01 02:27:24;;;;;;;19.85;7.85;;;;;;;10.51;66.17;100697.47;1744746;80;25625;-76
2021/06/01 02:30:01;;;;;;;16.15;8.73;;;;;;;10.54;66.21;100696.66;1746430;80;25821;-75
2021/06/01 02:32:42;;;;;;;12.95;8.10;;;;;;;10.62;66.42;100691.95;1738762;80;26356;-75
2021/06/01 02:35:19;;;;;;;16.10;9.20;;;;;;;10.66;66.42;100688.84;1742648;80;25509;-76
2021/06/01 02:37:49;;;;;;;16.30;9.90;;;;;;;10.69;66.49;100690.83;1743722;80;25542;-76
2021/06/01 02:40:18;;;;;;;;;;;;;;;10.72;66.51;100692.66;1719662;81;25690;-76
2021/06/01 02:42:45;;;;;;;17.15;9.70;;;;;;;10.74;66.53;100684.64;1748603;80;25178;-75
2021/06/01 02:45:15;;;;;;;14.50;9.38;;;;;;;10.76;66.61;100685.31;1743665;80;25738;-76
2021/06/01 02:47:42;;;;;;;14.50;9.50;;;;;;;10.76;66.50;100687.43;1726252;80;25616;-76
2021/06/01 02:50:12;;;;;;;17.20;8.98;;;;;;;10.77;66.58;100689.05;1746810;80;25594;-75
2021/06/01 02:52:41;;;;;;;15.83;10.00;;;;;;;10.76;66.60;100686.12;1746797;80;25489;-75
2021/06/01 02:55:10;;;;;;;14.98;9.70;;;;;;;10.78;66.80;100684.17;1740853;80;25603;-75
2021/06/01 02:57:39;;;;;;;17.75;10.32;;;;;;;10.79;66.66;100688.91;1745388;80;25581;-76
2021/06/01 03:00:10;;;;;;;17.57;9.93;;;;;;;10.80;66.71;100691.37;1742390;80;25493;-76
2021/06/01 03:02:35;;;;;;;;;;;;;;;10.81;66.66;100690.89;1693921;82;25663;-79
2021/06/01 03:05:03;;;;;;;13.83;9.43;;;;;;;10.82;66.63;100685.48;1708095;81;34740;-79
2021/06/01 03:07:31;;;;;;;13.35;9.30;;;;;;;10.79;66.59;100684.99;1714042;81;25658;-79
2021/06/01 03:09:57;;;;;;;17.65;9.13;;;;;;;10.81;66.54;100685.66;1717184;81;25577;-79
2021/06/01 03:13:08;;;;;;;21.03;11.07;;;;;;;10.83;66.50;100687.14;1714287;81;31287;-79
2021/06/01 03:14:51;;;;;;;16.35;9.78;;;;;;;10.78;66.24;100694.63;1713577;80;25573;-79
2021/06/01 03:17:17;;;;;;;19.60;10.20;;;;;;;10.81;66.36;100691.70;1706904;80;25208;-79
2021/06/01 03:19:43;;;;;;;17.75;9.15;;;;;;;10.85;66.22;100692.20;1739968;80;25197;-79
2021/06/01 03:22:09;;;;;;;24.12;10.32;;;;;;;10.96;66.15;100692.39;1738328;80;25572;-79
2021/06/01 03:24:35;;;;;;;21.37;9.47;;;;;;;11.01;66.12;100688.81;1742262;80;33160;-76
2021/06/01 03:27:02;;;;;;;20.65;9.50;;;;;;;11.04;66.08;100685.38;1738616;80;25570;-76
2021/06/01 03:29:29;;;;;;;17.62;9.23;;;;;;;11.08;65.99;100687.20;1736624;80;25668;-75
2021/06/01 03:31:55;;;;;;;19.80;9.70;;;;;;;11.09;65.91;100684.91;1709627;81;25580;-76
2021/06/01 03:34:22;;;;;;;20.50;10.90;;;;;;;11.11;65.84;100679.84;1736434;80;26486;-75
2021/06/01 03:36:49;;;;;;;17.92;10.18;;;;;;;11.14;65.82;100681.82;1739836;80;25669;-76
2021/06/01 03:39:16;;;;;;;17.10;9.80;;;;;;;11.16;65.76;100673.30;1739407;80;25728;-75
2021/06/01 03:41:42;;;;;;;20.32;10.28;;;;;;;11.15;65.71;100675.11;1740528;80;25508;-75
2021/06/01 03:44:08;;;;;;;17.98;8.90;;;;;;;11.19;65.67;100676.93;1740165;80;32816;-76
2021/06/01 03:46:34;;;;;;;13.32;9.33;;;;;;;11.17;65.38;100674.95;1737075;80;26437;-75
2021/06/01 03:49:00;;;;;;;21.37;9.33;;;;;;;11.15;64.95;100680.34;1738320;80;31161;-76
2021/06/01 03:51:26;;;;;;;21.53;9.47;;;;;;;11.14;64.60;100679.20;1738186;80;28415;-76
2021/06/01 03:53:52;;;;;;;15.63;9.65;;;;;;;11.10;64.64;100671.69;1737579;80;34742;-79
2021/06/01 03:56:18;;;;;;;19.05;9.50;;;;;;;11.13;64.89;100677.09;1741207;80;25135;-76
2021/06/01 03:58:45;;;;;;;15.83;9.83;;;;;;;11.17;65.01;100675.77;1738722;80;26954;-76
2021/06/01 04:01:12;;;;;;;18.32;9.70;;;;;;;11.19;65.23;100674.31;1739566;80;25425;-75
2021/06/01 04:03:41;;;;;;;18.80;9.75;;;;;;;11.21;65.34;100671.87;1739466;80;25229;-76
2021/06/01 04:06:12;;;;;;;18.40;9.53;;;;;;;11.23;65.47;100672.50;1738761;80;25468;-75
2021/06/01 04:08:40;;;;;;;18.20;9.13;;;;;;;11.31;65.54;100673.82;1734899;80;25604;-79
2021/06/01 04:11:09;;;;;;;15.80;8.60;;;;;;;11.40;65.65;100672.52;1741713;80;25547;-79
2021/06/01 04:13:34;;;;;;;15.35;8.85;;;;;;;11.44;65.69;100672.53;1740352;80;26022;-79
2021/06/01 04:16:00;;;;;;;14.10;8.20;;;;;;;11.47;65.72;100670.90;1740944;80;30365;-75
2021/06/01 04:18:26;;;;;;;14.65;9.30;;;;;;;11.50;65.82;100667.45;1737461;80;25668;-76
2021/06/01 04:20:53;;;;;;;13.25;8.85;;;;;;;11.61;65.88;100668.12;1737545;80;32316;-76
2021/06/01 04:23:19;;;;;;;13.72;9.05;;;;;;;11.70;65.73;100667.96;1737470;80;25586;-75
2021/06/01 04:25:45;;;;;;;13.23;8.50;;;;;;;11.77;65.65;100664.99;1735845;80;33306;-76
2021/06/01 04:28:11;;;;;;;13.20;8.80;;;;;;;11.86;65.64;100668.94;1740954;80;30440;-76
2021/06/01 04:30:38;;;;;;;20.15;9.80;;;;;;;11.88;65.62;100670.42;1740830;80;25609;-76
2021/06/01 04:33:04;;;;;;;18.23;9.20;;;;;;;11.91;65.57;100668.77;1738919;80;25179;-76
2021/06/01 04:35:30;;;;;;;18.02;9.23;;;;;;;11.95;65.50;100666.66;1738707;80;25947;-79
2021/06/01 04:37:56;;;;;;;15.68;9.45;;;;;;;11.98;65.49;100671.56;1738916;80;31382;-79
2021/06/01 04:40:22;;;;;;;18.93;10.20;;;;;;;12.03;65.56;100674.50;1737597;80;30341;-79
2021/06/01 04:42:48;;;;;;;20.82;10.18;;;;;;;12.09;65.69;100675.64;1737860;80;25137;-79
2021/06/01 04:45:15;;;;;;;17.60;10.13;;;;;;;12.12;65.63;100672.18;1743153;80;33046;-79
2021/06/01 04:47:42;;;;;;;20.23;9.50;;;;;;;12.16;65.63;100670.03;1735927;80;25430;-76
2021/06/01 04:50:10;;;;;;;22.67;11.10;;;;;;;12.23;65.78;100672.82;1739971;80;25198;-76
2021/06/01 04:52:36;;;;;;;17.10;10.00;;;;;;;12.23;64.70;100670.20;1740851;80;25631;-76
2021/06/01 04:55:04;;;;;;;18.48;10.00;;;;;;;12.18;64.35;100678.05;1739711;80;35055;-76
2021/06/01 04:57:29;;;;;;;16.90;9.95;;;;;;;12.17;64.17;100676.43;1738597;80;25960;-79
2021/06/01 04:59:55;;;;;;;20.20;9.98;;;;;;;12.20;64.10;100676.59;1740069;80;25448;-79
2021/06/01 05:02:21;;;;;;;21.70;10.38;;;;;;;12.21;64.00;100676.41;1744144;80;32093;-79
2021/06/01 05:04:48;;;;;;;18.80;10.40;;;;;;;12.24;64.02;100677.06;1740689;80;25230;-76
2021/06/01 05:07:14;;;;;;;16.77;10.70;;;;;;;12.28;63.94;100675.26;1746749;80;25541;-76
2021/06/01 05:09:40;;;;;;;28.27;10.88;;;;;;;12.36;64.06;100671.80;1739790;80;25262;-76
2021/06/01 05:12:07;;;;;;;19.73;10.03;;;;;;;12.43;64.07;100674.05;1740277;80;25509;-76
2021/06/01 05:14:33;;;;;;;19.62;10.30;;;;;;;12.51;63.98;100676.64;1741218;80;25202;-74
2021/06/01 05:16:59;;;;;;;20.03;10.10;;;;;;;12.59;63.86;100679.23;1743254;80;29843;-75
2021/06/01 05:19:25;;;;;;;26.17;10.65;;;;;;;12.60;63.72;100682.20;1736356;80;35047;-75
2021/06/01 05:21:51;;;;;;;25.72;11.25;;;;;;;12.63;63.62;100676.61;1739328;80;32241;-75
2021/06/01 05:24:17;;;;;;;26.00;9.98;;;;;;;12.64;63.46;100674.80;1736454;80;25696;-78
2021/06/01 05:26:43;;;;;;;19.65;11.40;;;;;;;12.68;63.50;100680.52;1741415;80;31952;-78
2021/06/01 05:29:09;;;;;;;20.57;10.37;;;;;;;12.71;63.54;100677.04;1741379;80;31278;-78
2021/06/01 05:34:11;;;;;;;20.72;9.88;;;;;;;12.79;63.49;100680.13;1743491;80;25138;-78
2021/06/01 05:36:38;;;;;;;16.95;11.28;;;;;;;12.83;63.36;100678.81;1746218;80;25491;-78
2021/06/01 05:39:12;;;;;;;23.25;9.93;;;;;;;12.90;63.37;100686.30;1731839;80;25178;-78
2021/06/01 05:41:38;;;;;;;19.65;9.75;;;;;;;12.98;63.30;100689.38;1747514;80;25193;-78
2021/06/01 05:44:04;;;;;;;19.12;10.00;;;;;;;13.03;63.24;100686.55;1754745;80;25564;-78
2021/06/01 05:46:30;;;;;;;19.15;10.25;;;;;;;13.07;62.88;100689.17;1747647;80;25802;-78
2021/06/01 05:48:56;;;;;;;17.52;9.48;;;;;;;13.09;62.75;100688.52;1722856;81;26320;-78
2021/06/01 05:51:30;;;;;;;13.95;9.45;;;;;;;13.15;62.84;100684.84;1720733;81;25683;-78
2021/06/01 05:53:53;;;;;;;17.30;9.05;;;;;;;13.22;62.76;100683.17;1722794;80;25208;-78
2021/06/01 05:56:19;;;;;;;20.17;9.33;;;;;;;13.27;62.80;100684.81;1726264;80;25931;-78
2021/06/01 05:58:46;;;;;;;23.67;9.53;;;;;;;13.26;62.37;100683.19;1720307;81;25175;-78
2021/06/01 06:01:12;;;;;;;20.65;11.20;;;;;;;13.26;62.61;100685.31;1728293;80;25476;-78
2021/06/01 06:03:37;;;;;;;20.77;10.10;;;;;;;13.31;62.64;100685.61;1728524;81;33190;-77
2021/06/01 06:06:11;;;;;;;19.90;9.70;;;;;;;13.40;62.69;100676.36;1724477;80;31436;-79
2021/06/01 06:08:32;;;;;;;25.68;10.72;;;;;;;13.50;62.77;100684.33;1722083;80;26466;-77
2021/06/01 06:10:57;;;;;;;21.00;9.25;;;;;;;13.58;62.63;100674.73;1724484;80;26019;-77
2021/06/01 06:13:24;;;;;;;34.78;12.60;;;;;;;13.64;62.73;100677.95;1695046;80;25529;-79
2021/06/01 06:15:50;;;;;;;24.12;9.65;;;;;;;13.72;62.95;100673.47;1723810;80;25748;-79
2021/06/01 06:18:33;;;;;;;17.82;10.43;;;;;;;13.80;63.06;100671.24;1726606;80;25497;-75
2021/06/01 06:21:05;;;;;;;22.45;9.05;;;;;;;13.83;62.90;100670.91;1724058;80;25655;-82
2021/06/01 06:23:35;;;;;;;18.02;9.23;;;;;;;13.88;62.61;100672.98;1720103;80;25537;-79
2021/06/01 06:26:02;;;;;;;18.37;9.23;;;;;;;13.90;62.43;100677.58;1723204;80;25516;-77
2021/06/01 06:28:31;;;;;;;19.73;9.78;;;;;;;13.96;62.54;100675.03;1725079;80;25149;-75
2021/06/01 06:30:57;;;;;;;19.82;9.03;;;;;;;14.03;62.28;100679.09;1726331;80;25499;-75
2021/06/01 06:33:23;;;;;;;17.82;9.90;;;;;;;14.13;62.47;100683.59;1721491;80;34739;-76
2021/06/01 06:35:50;;;;;;;18.15;9.28;;;;;;;14.25;62.62;100677.37;1722968;80;25151;-76
2021/06/01 06:38:17;;;;;;;20.00;9.43;;;;;;;14.34;62.22;100678.10;1732284;80;27006;-76
2021/06/01 06:40:48;;;;;;;19.85;9.48;;;;;;;14.41;61.90;100679.83;1722632;80;25664;-76
2021/06/01 06:43:11;;;;;;;20.17;8.73;;;;;;;14.44;61.30;100682.09;1692172;80;26092;-76
2021/06/01 06:45:37;;;;;;;17.30;8.85;;;;;;;14.44;61.26;100682.09;1729445;80;34900;-77
2021/06/01 06:48:09;;;;;;;20.52;9.35;;;;;;;14.48;61.29;100673.83;1741403;80;33066;-76
2021/06/01 06:50:36;;;;;;;19.45;9.00;;;;;;;14.51;61.42;100671.64;1721784;80;25546;-76
2021/06/01 06:53:05;;;;;;;21.57;9.55;;;;;;;14.60;61.48;100673.22;1724756;80;25778;-78
2021/06/01 06:55:32;;;;;;;17.40;8.95;;;;;;;14.67;61.10;100677.74;1726034;80;26470;-77
2021/06/01 06:57:59;;;;;;;23.15;8.73;;;;;;;14.69;60.99;100673.93;1724865;80;25497;-75
2021/06/01 07:00:26;;;;;;;21.02;8.50;;;;;;;14.69;61.14;100673.12;1722429;80;25672;-75
2021/06/01 07:02:53;;;;;;;26.12;9.83;;;;;;;14.73;61.27;100672.58;1737908;80;25713;-75
2021/06/01 07:05:20;;;;;;;16.90;8.75;;;;;;;14.81;61.46;100670.31;1723043;80;26186;-76
2021/06/01 07:07:51;;;;;;;16.82;8.20;;;;;;;14.92;61.81;100673.77;1726262;80;25143;-73
2021/06/01 07:10:17;;;;;;;;;;;;;;;15.06;61.71;100666.36;1697493;80;25525;-78
2021/06/01 07:12:44;;;;;;;23.65;9.28;;;;;;;15.13;61.03;100668.23;1728978;80;25788;-76
2021/06/01 07:15:28;;;;;;;16.65;8.13;;;;;;;15.19;61.21;100672.23;1734557;80;25514;-78
2021/06/01 07:17:58;;;;;;;18.00;7.08;;;;;;;15.30;60.62;100666.98;1727103;80;25586;-78
2021/06/01 07:20:29;;;;;;;14.03;6.65;;;;;;;15.35;60.49;100660.64;1727868;80;25190;-80
2021/06/01 07:22:52;;;;;;;12.63;6.83;;;;;;;15.44;59.98;100661.33;1706714;80;26056;-77
2021/06/01 07:25:18;;;;;;;13.90;7.22;;;;;;;15.51;59.87;100662.20;1748812;79;32443;-79
2021/06/01 07:27:44;;;;;;;21.10;7.28;;;;;;;15.62;59.45;100663.52;1731534;80;25490;-76
2021/06/01 07:30:12;;;;;;;15.80;7.08;;;;;;;15.70;59.61;100656.81;1723550;80;25839;-80
2021/06/01 07:32:38;;;;;;;22.42;6.08;;;;;;;15.80;59.57;100655.18;1727326;80;25796;-83
2021/06/01 07:35:05;;;;;;;14.00;6.30;;;;;;;15.88;58.97;100652.40;1727795;80;34648;-79
2021/06/01 07:37:31;;;;;;;11.22;6.25;;;;;;;15.94;58.13;100648.98;1721403;80;25670;-78
2021/06/01 07:39:57;;;;;;;18.07;7.65;;;;;;;16.01;58.53;100652.46;1724939;80;25428;-80
2021/06/01 07:42:23;;;;;;;14.58;6.22;;;;;;;16.08;57.67;100657.79;1722641;80;33037;-72
2021/06/01 07:44:49;;;;;;;12.05;6.78;;;;;;;16.13;57.93;100656.20;1735652;79;26059;-76
2021/06/01 07:47:16;;;;;;;14.80;6.03;;;;;;;16.25;57.74;100656.97;1733582;80;34698;-77
2021/06/01 07:49:42;;;;;;;19.15;6.60;;;;;;;16.34;57.89;100663.70;1733136;79;25576;-73
2021/06/01 07:52:08;;;;;;;14.65;6.08;;;;;;;16.52;57.42;100656.59;1730732;80;26024;-76
2021/06/01 07:54:34;;;;;;;14.38;6.03;;;;;;;16.68;57.06;100658.08;1734965;79;33175;-76
2021/06/01 07:57:00;;;;;;;13.88;5.55;;;;;;;16.68;57.06;100658.08;1735900;80;26336;-77
2021/06/01 07:59:26;;;;;;;18.30;5.30;;;;;;;16.82;56.58;100650.53;1742480;80;34762;-74
2021/06/01 08:01:52;;;;;;;11.03;5.22;;;;;;;16.94;56.26;100651.59;1729969;80;32286;-75
2021/06/01 08:04:18;;;;;;;10.32;5.08;;;;;;;17.04;55.64;100654.64;1720630;80;25522;-76
2021/06/01 08:06:45;;;;;;;15.18;4.53;;;;;;;17.24;55.28;100653.86;1723008;80;33054;-75
2021/06/01 08:09:12;;;;;;;15.30;4.85;;;;;;;17.24;55.28;100653.86;1723331;80;25868;-78
2021/06/01 08:11:39;;;;;;;11.68;4.67;;;;;;;17.36;54.83;100660.70;1726429;80;25306;-77
2021/06/01 08:14:05;;;;;;;13.48;4.90;;;;;;;17.40;54.40;100651.34;1724998;80;25566;-79
2021/06/01 08:16:32;;;;;;;14.95;4.92;;;;;;;17.48;54.61;100649.81;1728654;80;26188;-80
2021/06/01 08:19:14;;;;;;;13.20;3.77;;;;;;;17.59;54.44;100652.36;1726770;80;25775;-80
2021/06/01 08:21:54;;;;;;;16.25;4.75;;;;;;;17.70;53.72;100655.19;1727344;80;25721;-80
2021/06/01 08:24:12;;;;;;;8.28;4.10;;;;;;;17.71;53.18;100652.88;1723132;80;25701;-80
2021/06/01 08:26:38;;;;;;;8.98;4.42;;;;;;;17.68;52.81;100652.48;1739105;80;32360;-78
2021/06/01 08:29:04;;;;;;;11.73;4.85;;;;;;;17.68;53.17;100652.48;1726037;80;25605;-78
2021/06/01 08:31:30;;;;;;;11.78;4.53;;;;;;;17.75;53.36;100642.69;1725554;80;33551;-81
2021/06/01 08:33:56;;;;;;;8.63;3.98;;;;;;;17.81;53.12;100640.57;1720604;80;25559;-79
2021/06/01 08:36:24;;;;;;;14.65;4.10;;;;;;;17.80;52.29;100643.44;1721331;81;34771;-82
2021/06/01 08:38:51;;;;;;;9.15;3.58;;;;;;;17.74;52.42;100643.20;1727701;80;25542;-81
2021/06/01 08:41:17;;;;;;;12.03;4.40;;;;;;;17.82;52.69;100638.77;1726225;80;25679;-82
2021/06/01 08:43:45;;;;;;;11.05;3.62;;;;;;;17.94;52.08;100637.10;1725708;80;26339;-76
2021/06/01 08:46:11;;;;;;;17.25;3.27;;;;;;;18.05;51.33;100633.81;1715681;81;25510;-78
2021/06/01 08:48:39;;;;;;;10.38;3.40;;;;;;;18.17;52.13;100633.49;1740131;80;25785;-81
2021/06/01 08:51:07;;;;;;;8.55;3.60;;;;;;;18.29;50.91;100636.30;1743301;80;25629;-80
2021/06/01 08:53:35;;;;;;;8.43;3.17;;;;;;;18.31;50.68;100636.10;1746421;80;25510;-78
2021/06/01 08:56:02;;;;;;;10.00;3.77;;;;;;;18.26;49.34;100631.94;1747744;80;25200;-78
2021/06/01 08:58:28;;;;;;;11.93;3.45;;;;;;;18.25;50.38;100632.45;1749102;80;25206;-81
2021/06/01 09:00:55;;;;;;;3.27;1.85;;;;;;;18.35;50.12;100632.00;1746199;80;25421;-79
2021/06/01 09:03:24;;;;;;;10.00;2.10;;;;;;;18.39;47.93;100632.70;1740333;80;25205;-78
2021/06/01 09:12:03;;;;;;;7.67;2.90;;;;;;;18.65;47.02;100629.63;1715710;81;25881;-80
2021/06/01 09:23:00;;;;;;;6.87;2.55;;;;;;;19.12;47.90;100623.56;1714341;81;25528;-79
2021/06/01 09:25:56;;;;;;;10.70;3.12;;;;;;;19.10;46.52;100625.63;1712643;83;25490;-79
2021/06/01 09:28:15;;;;;;;8.50;3.25;;;;;;;19.13;46.58;100620.42;1717623;81;25610;-76
2021/06/01 09:30:50;;;;;;;6.37;3.00;;;;;;;19.25;46.36;100618.16;1714204;81;25523;-79
2021/06/01 09:33:21;;;;;;;10.70;2.65;;;;;;;19.39;46.44;100622.84;1714456;82;26247;-79
2021/06/01 09:35:54;;;;;;;16.48;2.77;;;;;;;19.49;46.06;100617.88;1714008;81;25457;-80
2021/06/01 09:38:23;;;;;;;10.55;2.90;;;;;;;19.51;45.38;100614.50;1714288;81;25813;-76
2021/06/01 09:41:12;;;;;;;6.28;2.37;;;;;;;19.55;44.94;100612.73;1717269;81;25624;-80
2021/06/01 09:44:00;;;;;;;5.55;2.08;;;;;;;19.61;44.84;100614.50;1717426;81;26116;-81
2021/06/01 09:46:31;;;;;;;7.65;2.17;;;;;;;19.70;43.04;100606.61;1754119;80;26369;-81
2021/06/01 09:49:17;;;;;;;6.10;2.37;;;;;;;19.78;42.19;100615.61;1724923;80;25595;-79
2021/06/01 09:51:58;;;;;;;6.95;2.85;;;;;;;19.62;41.39;100611.64;1718371;81;25187;-79
2021/06/01 09:54:37;;;;;;;6.40;2.25;;;;;;;19.49;41.28;100607.78;1729072;80;25507;-80
2021/06/01 09:57:18;;;;;;;9.10;2.08;;;;;;;19.39;41.14;100610.11;1728186;80;25397;-80
2021/06/01 10:00:16;;;;;;;4.80;2.00;;;;;;;19.23;41.98;100605.66;1726946;80;25599;-79
2021/06/01 10:02:53;;;;;;;4.33;2.25;;;;;;;19.28;42.72;100611.10;1683789;82;25325;-78
2021/06/01 10:05:26;;;;;;;6.58;2.37;;;;;;;19.34;42.04;100605.45;1685929;82;26212;-78
2021/06/01 10:07:54;;;;;;;5.33;1.90;;;;;;;19.37;42.47;100610.83;1713897;82;25332;-77
2021/06/01 10:10:29;;;;;;;7.28;2.30;;;;;;;19.43;42.31;100613.44;1690491;82;25456;-78
2021/06/01 10:12:59;;;;;;;8.85;2.15;;;;;;;19.49;42.39;100610.44;1711987;82;25526;-73
2021/06/01 10:15:28;;;;;;;6.53;2.58;;;;;;;19.53;42.49;100608.95;1712996;82;29974;-74
2021/06/01 10:17:55;;;;;;;3.70;2.25;;;;;;;19.56;42.53;100614.34;1711351;82;25629;-75
2021/06/01 10:20:32;;;;;;;7.03;2.20;;;;;;;19.59;42.34;100611.25;1712332;82;25593;-75
2021/06/01 10:22:59;;;;;;;6.58;2.42;;;;;;;19.68;42.11;100612.64;1711671;82;25258;-75
2021/06/01 10:25:25;;;;;;;8.43;2.80;;;;;;;19.88;42.17;100606.61;1713154;82;25784;-77
2021/06/01 10:27:52;;;;;;;9.50;4.00;;;;;;;20.11;42.54;100607.81;1711002;82;26045;-77
2021/06/01 10:30:19;;;;;;;8.03;2.45;;;;;;;20.40;42.71;100607.54;1712131;82;25593;-77
2021/06/01 10:32:52;;;;;;;8.40;2.42;;;;;;;20.69;42.32;100603.84;1717311;78;25711;-76
2021/06/01 10:35:21;;;;;;;6.20;2.52;;;;;;;20.80;41.62;100603.87;1774444;78;25534;-76
2021/06/01 10:48:57;;;;;;;6.75;2.58;;;;;;;20.67;41.44;100597.41;1772491;78;25609;-77
2021/06/01 10:51:27;;;;;;;6.58;2.30;;;;;;;20.61;41.15;100600.45;1772089;78;25569;-76
2021/06/01 10:53:42;;;;;;;8.10;2.58;;;;;;;20.47;41.05;100600.31;1773808;78;25577;-78
2021/06/01 10:56:11;;;;;;;4.83;2.20;;;;;;;20.35;40.74;100600.27;1773604;78;25444;-76
2021/06/01 10:58:48;;;;;;;7.93;2.40;;;;;;;20.31;41.01;100599.60;1772297;78;25600;-78
2021/06/01 11:04:25;;;;;;;5.95;2.37;;;;;;;20.28;40.86;100602.70;1776263;78;25674;-77
2021/06/01 11:09:40;;;;;;;5.37;2.20;;;;;;;20.05;40.51;100601.55;1775393;78;25410;-74
2021/06/01 11:12:24;;;;;;;6.42;2.40;;;;;;;20.02;40.75;100595.85;1778497;78;25332;-74
2021/06/01 11:14:54;;;;;;;6.28;2.33;;;;;;;20.03;41.12;100594.31;1779656;78;25083;-75
2021/06/01 11:17:37;;;;;;;6.62;3.80;;;;;;;20.12;40.75;100595.63;1782346;78;25486;-74
2021/06/01 11:20:25;;;;;;;6.15;2.00;;;;;;;20.15;41.23;100592.53;1778406;78;25519;-77
2021/06/01 11:33:36;;;;;;;4.78;2.02;;;;;;;20.61;41.24;100593.81;1776406;78;25545;-76
2021/06/01 11:36:05;;;;;;;6.33;1.98;;;;;;;20.69;40.96;100595.34;1777779;78;25845;-77
2021/06/01 11:43:57;;;;;;;3.70;1.57;;;;;;;20.75;40.48;100598.94;1779323;78;25612;-76
2021/06/01 11:46:46;;;;;;;4.85;1.62;;;;;;;20.77;40.07;100594.22;1778730;78;25626;-74
2021/06/01 11:51:52;;;;;;;5.92;1.85;;;;;;;20.66;40.04;100591.81;1775907;78;25402;-76
2021/06/01 11:54:18;;;;;;;3.80;1.95;;;;;;;20.75;40.30;100600.27;1779258;78;25565;-77
2021/06/01 12:18:48;;;;;;;7.75;2.40;;;;;;;20.72;39.80;100602.05;1780082;78;26080;-77
2021/06/01 12:21:31;;;;;;;3.15;1.90;;;;;;;20.72;39.59;100592.76;1769488;78;25471;-77
2021/06/01 12:24:13;;;;;;;11.80;3.83;;;;;;;20.66;39.13;100594.47;1772091;78;25661;-76
2021/06/01 12:32:28;;;;;;;11.30;2.70;;;;;;;20.51;39.95;100590.05;1780638;78;25968;-76
2021/06/01 13:37:11;;;;;;;27.82;3.92;;;;;;;20.09;41.53;100583.33;1723854;78;25593;-76
2021/06/01 13:39:47;;;;;;;9.68;3.02;;;;;;;20.14;41.70;100582.95;1772598;78;25561;-76
2021/06/01 13:55:42;;;;;;;6.45;2.10;;;;;;;20.39;41.50;100580.19;1775461;78;26109;-75
2021/06/01 14:00:40;;;;;;;7.90;2.30;;;;;;;20.46;41.26;100580.11;1776109;78;26306;-76
2021/06/01 14:15:21;;;;;;;5.72;2.58;;;;;;;20.65;40.67;100580.88;1778558;78;25680;-76
2021/06/01 14:28:02;;;;;;;5.60;2.50;;;;;;;20.75;40.29;100582.48;1772257;78;25659;-76
2021/06/01 14:30:15;;;;;;;9.40;2.42;;;;;;;20.73;40.37;100587.20;1764218;78;25795;-76
2021/06/01 14:38:12;;;;;;;5.45;2.67;;;;;;;20.73;39.91;100589.86;1741765;80;25615;-77
2021/06/01 14:54:49;;;;;;;7.72;2.20;;;;;;;20.77;39.94;100591.56;1713378;81;25852;-77
2021/06/01 15:30:08;;;;;;;6.30;2.30;;;;;;;20.54;39.58;100585.14;1666752;84;26232;-77